Canton, South Dakota
Current Conditions -  °F | °C
As of 12:56 AM on Sunday 23 Nov 2014 (Local Time) from KFSD Reporting Station
Broken Clouds Broken Clouds  
Wind Chill: 37°   Ceiling: 10000
Heat Index: 42°   Visibility: 9mi
Dew Point: 39°   Wind: 8mph
Humidity: 89%   Direction: 200°SSW
Pressure: 29.44"   Gusts: NA
Location:  43.3°N, 96.59°W
Report Text: KFSD 230656Z AUTO 20007KT 9SM FEW075 BKN100 BKN120 06/04 A2944 RMK AO2 SLP979 T00560039
Loading
Personal Weather Stations






























Interactive Weather Map New forecast layout! Learn more

10-Day Weather Forecast

Advertisements
Track Severe Weather on mobile